Time;durP1;ratioP1;P1;durP2;ratioP2;P2;SDS_P1;SDS_P2;PMS_P1;PMS_P2;Temp;Humidity;BMP_temperature;BMP_pressure;BME280_temperature;BME280_humidity;BME280_pressure;Samples;Min_cycle;Max_cycle;Signal;HPM_P1;HPM_P2
2022/04/09 00:02:23;;;;;;;31.77;13.25;;;;;;;2.26;83.50;99777.00;5037580;28;20372;-60
2022/04/09 00:04:55;;;;;;;27.85;13.95;;;;;;;2.31;83.62;99776.19;5037398;28;20117;-60
2022/04/09 00:07:26;;;;;;;26.13;12.60;;;;;;;2.40;83.38;99780.59;5032962;28;20400;-60
2022/04/09 00:09:57;;;;;;;30.27;13.30;;;;;;;2.46;83.34;99779.78;5037311;28;20045;-61
2022/04/09 00:12:27;;;;;;;28.42;12.85;;;;;;;2.48;83.13;99768.63;5037545;28;20087;-60
2022/04/09 00:14:58;;;;;;;29.50;13.52;;;;;;;2.50;83.08;99774.66;5036935;28;20286;-60
2022/04/09 00:17:29;;;;;;;28.95;13.82;;;;;;;2.53;82.98;99766.06;5037310;28;20045;-60
2022/04/09 00:20:01;;;;;;;36.60;14.43;;;;;;;2.54;82.77;99768.66;5025915;28;20395;-60
2022/04/09 00:22:32;;;;;;;30.65;14.00;;;;;;;2.58;82.61;99773.00;5031509;28;20382;-60
2022/04/09 00:25:04;;;;;;;29.48;14.20;;;;;;;2.55;82.27;99778.13;5032649;28;20077;-60
2022/04/09 00:27:35;;;;;;;29.77;13.57;;;;;;;2.52;82.49;99770.38;5037249;28;20095;-60
2022/04/09 00:30:07;;;;;;;31.38;15.25;;;;;;;2.50;82.32;99761.75;5037197;28;20117;-60
2022/04/09 00:32:38;;;;;;;28.33;15.68;;;;;;;2.40;82.31;99754.81;5037017;28;20453;-60
2022/04/09 00:35:11;;;;;;;30.02;14.70;;;;;;;2.56;82.06;99761.78;5036334;28;20259;-60
2022/04/09 00:37:45;;;;;;;32.95;15.20;;;;;;;2.53;82.01;99755.75;5037239;28;20255;-60
2022/04/09 00:40:19;;;;;;;32.25;15.15;;;;;;;2.51;82.49;99758.31;5036900;28;20053;-61
2022/04/09 00:42:50;;;;;;;31.08;15.07;;;;;;;2.50;82.58;99756.59;5017073;28;20087;-60
2022/04/09 00:45:20;;;;;;;31.67;15.93;;;;;;;2.45;82.66;99745.38;5037113;28;20112;-60
2022/04/09 00:47:51;;;;;;;29.27;13.95;;;;;;;2.55;82.90;99759.22;5037085;28;20049;-60
2022/04/09 00:50:24;;;;;;;31.50;15.27;;;;;;;2.57;83.04;99760.97;5030324;28;20041;-60
2022/04/09 00:52:59;;;;;;;26.98;14.55;;;;;;;2.53;82.87;99750.59;5027522;28;20092;-60
2022/04/09 00:58:21;;;;;;;33.50;15.82;;;;;;;2.62;83.43;99747.22;5016543;28;20050;-60
2022/04/09 01:00:52;;;;;;;27.42;14.25;;;;;;;2.67;83.24;99758.44;5017057;28;20062;-61
2022/04/09 01:03:23;;;;;;;27.92;14.73;;;;;;;2.68;83.10;99749.84;5020353;28;20344;-60
2022/04/09 01:05:56;;;;;;;26.95;13.02;;;;;;;2.76;83.22;99748.19;5020192;28;20088;-60
2022/04/09 01:08:26;;;;;;;29.45;14.35;;;;;;;2.79;83.09;99745.63;5019795;28;20053;-60
2022/04/09 01:10:57;;;;;;;28.48;13.27;;;;;;;2.78;83.10;99746.50;5019808;28;20061;-60
2022/04/09 01:13:28;;;;;;;21.17;13.02;;;;;;;2.83;83.53;99739.63;5019871;28;20379;-60
2022/04/09 01:15:59;;;;;;;30.10;14.18;;;;;;;2.88;83.26;99737.94;5020608;28;20134;-60
2022/04/09 01:18:30;;;;;;;19.75;12.35;;;;;;;2.90;82.98;99733.66;5026916;28;20071;-60
2022/04/09 01:21:03;;;;;;;23.67;12.50;;;;;;;2.93;82.96;99736.25;5026715;28;20080;-60
2022/04/09 01:23:36;;;;;;;22.23;12.15;;;;;;;3.01;82.90;99733.72;5026673;28;20054;-60
2022/04/09 01:26:07;;;;;;;23.98;13.52;;;;;;;3.05;83.13;99729.47;5026457;28;20963;-60
2022/04/09 01:28:39;;;;;;;19.77;11.45;;;;;;;3.06;82.74;99726.00;5026599;28;20076;-60
2022/04/09 01:31:10;;;;;;;18.13;10.18;;;;;;;3.07;82.57;99723.44;5025582;28;20054;-60
2022/04/09 01:33:41;;;;;;;18.30;10.55;;;;;;;3.08;82.75;99713.97;5025581;28;20050;-60
2022/04/09 01:36:14;;;;;;;19.15;10.15;;;;;;;3.08;82.58;99703.66;5025600;28;20061;-59
2022/04/09 01:38:46;;;;;;;22.10;11.70;;;;;;;3.11;82.30;99709.69;5025799;28;20050;-59
2022/04/09 01:41:17;;;;;;;17.10;10.43;;;;;;;3.14;82.62;99708.84;5025727;28;20046;-59
2022/04/09 01:43:48;;;;;;;16.70;9.55;;;;;;;3.17;82.47;99698.50;5023950;28;20056;-59
2022/04/09 01:46:20;;;;;;;16.75;10.23;;;;;;;3.20;82.24;99698.56;5025261;28;20125;-60
2022/04/09 01:48:50;;;;;;;17.40;10.13;;;;;;;3.20;82.48;99693.38;5025278;28;20383;-59
2022/04/09 01:51:22;;;;;;;19.38;10.48;;;;;;;3.23;82.38;99690.81;5025248;28;20125;-59
2022/04/09 01:53:54;;;;;;;19.92;10.75;;;;;;;3.35;82.20;99696.03;5011032;28;20277;-59
2022/04/09 01:56:25;;;;;;;19.25;10.50;;;;;;;3.40;81.93;99696.91;5005764;28;20104;-60
2022/04/09 01:58:55;;;;;;;16.83;10.43;;;;;;;3.38;81.64;99702.91;5006052;28;20088;-60
2022/04/09 02:01:26;;;;;;;15.88;9.70;;;;;;;3.20;81.55;99694.25;5005833;28;20050;-60
2022/04/09 02:03:57;;;;;;;15.30;9.65;;;;;;;3.12;81.84;99692.47;5006303;28;20066;-61
2022/04/09 02:06:28;;;;;;;15.32;9.45;;;;;;;3.12;82.42;99689.88;5005878;28;20053;-61
2022/04/09 02:09:00;;;;;;;19.30;10.50;;;;;;;3.11;82.54;99688.16;5005730;28;20082;-60
2022/04/09 02:11:31;;;;;;;19.58;10.95;;;;;;;3.09;82.66;99695.03;5005612;28;20089;-61
2022/04/09 02:14:02;;;;;;;17.40;10.18;;;;;;;3.11;82.57;99698.50;5004986;28;20049;-60
2022/04/09 02:16:33;;;;;;;17.38;11.00;;;;;;;3.13;82.31;99691.63;5005016;28;20046;-60
2022/04/09 02:19:04;;;;;;;15.13;9.20;;;;;;;3.23;82.41;99683.06;5006562;28;20058;-60
2022/04/09 02:21:34;;;;;;;17.60;10.00;;;;;;;3.35;82.28;99683.13;5005416;28;20064;-60
2022/04/09 02:24:09;;;;;;;32.10;18.00;;;;;;;3.38;82.04;99683.13;5005540;28;20066;-61
2022/04/09 02:26:40;;;;;;;48.10;24.83;;;;;;;3.38;81.94;99693.44;5004702;28;20050;-60
2022/04/09 02:29:11;;;;;;;21.52;11.35;;;;;;;3.28;81.75;99673.63;5004048;28;20121;-60
2022/04/09 02:31:42;;;;;;;18.48;10.60;;;;;;;3.36;81.32;99679.66;5003407;28;20153;-60
2022/04/09 02:34:13;;;;;;;17.65;10.82;;;;;;;3.37;81.61;99696.91;5003738;28;20105;-60
2022/04/09 02:36:45;;;;;;;17.50;10.18;;;;;;;3.38;81.32;99693.44;5004546;28;20395;-60
2022/04/09 02:39:21;;;;;;;15.50;9.05;;;;;;;3.49;81.62;99695.19;5005459;28;20053;-60
2022/04/09 02:41:52;;;;;;;14.25;8.35;;;;;;;3.56;81.24;99686.63;5005490;28;20050;-60
2022/04/09 02:44:24;;;;;;;18.40;8.90;;;;;;;3.54;81.24;99689.19;5005245;28;20248;-60
2022/04/09 02:46:55;;;;;;;17.60;9.20;;;;;;;3.63;80.94;99683.19;5005329;28;20058;-61
2022/04/09 02:49:26;;;;;;;18.02;8.82;;;;;;;3.64;80.85;99680.63;5004615;28;20068;-61
2022/04/09 02:51:56;;;;;;;18.73;9.15;;;;;;;3.72;80.95;99672.00;5004569;28;20064;-60
2022/04/09 02:54:29;;;;;;;18.00;10.13;;;;;;;3.43;80.69;99627.16;5004604;28;20347;-60
2022/04/09 02:56:59;;;;;;;19.30;10.75;;;;;;;3.70;80.69;99674.59;5004516;28;20046;-60
2022/04/09 02:59:30;;;;;;;16.17;9.85;;;;;;;3.72;80.67;99672.88;5004660;28;20076;-60
2022/04/09 03:02:00;;;;;;;17.77;10.07;;;;;;;3.76;80.51;99669.44;5003980;28;20038;-60
2022/04/09 03:04:31;;;;;;;16.42;9.77;;;;;;;3.68;80.96;99646.16;5004672;28;20359;-61
2022/04/09 03:07:02;;;;;;;17.67;9.23;;;;;;;3.84;80.59;99662.56;5005081;28;20168;-60
2022/04/09 03:09:34;;;;;;;16.55;9.50;;;;;;;3.97;80.80;99659.97;5004776;28;20050;-60
2022/04/09 03:12:06;;;;;;;19.10;9.85;;;;;;;4.00;80.57;99667.75;5005149;28;20054;-60
2022/04/09 03:14:36;;;;;;;20.67;10.55;;;;;;;4.06;80.48;99658.25;5004814;28;20380;-60
2022/04/09 03:17:07;;;;;;;14.43;8.60;;;;;;;4.11;80.34;99663.44;5004190;28;20077;-61
2022/04/09 03:19:37;;;;;;;15.25;8.90;;;;;;;4.08;80.12;99651.38;5004955;28;20046;-61
2022/04/09 03:22:08;;;;;;;13.57;9.30;;;;;;;4.11;80.02;99660.84;5005235;28;20050;-60
2022/04/09 03:24:40;;;;;;;23.05;11.43;;;;;;;4.10;79.53;99665.16;5003652;28;20076;-61
2022/04/09 03:27:11;;;;;;;20.33;11.45;;;;;;;4.15;79.74;99659.13;5004196;28;20054;-61
2022/04/09 03:29:42;;;;;;;21.83;12.05;;;;;;;4.14;79.30;99655.66;5005091;28;20325;-60
2022/04/09 03:32:13;;;;;;;17.98;10.90;;;;;;;3.62;79.56;99579.00;5004795;28;20046;-60
2022/04/09 03:34:44;;;;;;;24.02;12.32;;;;;;;4.08;79.32;99658.28;5004399;28;20069;-60
2022/04/09 03:37:15;;;;;;;24.27;10.90;;;;;;;4.09;79.41;99658.28;5004460;28;20152;-60
2022/04/09 03:39:47;;;;;;;25.00;11.98;;;;;;;4.06;79.13;99678.09;5004467;28;20053;-61
2022/04/09 03:42:18;;;;;;;19.60;10.68;;;;;;;4.01;79.21;99664.28;5003212;28;20328;-61
2022/04/09 03:44:49;;;;;;;17.33;9.77;;;;;;;4.05;79.27;99660.84;5003168;28;20053;-61
2022/04/09 03:47:21;;;;;;;18.60;9.85;;;;;;;4.01;79.36;99669.47;5003690;28;20188;-60
2022/04/09 03:49:52;;;;;;;21.20;9.63;;;;;;;3.85;79.30;99666.88;5003385;28;20236;-61
2022/04/09 03:52:23;;;;;;;17.70;8.88;;;;;;;3.86;79.94;99675.47;5003516;28;20061;-60
2022/04/09 03:54:56;;;;;;;18.02;9.07;;;;;;;3.85;80.02;99664.28;5004428;28;20363;-61
2022/04/09 03:57:27;;;;;;;14.43;8.60;;;;;;;3.96;79.96;99666.00;5004281;28;20424;-60
2022/04/09 03:59:58;;;;;;;12.82;8.57;;;;;;;4.00;80.08;99672.91;5004587;28;20073;-61
2022/04/09 04:02:30;;;;;;;13.85;8.68;;;;;;;4.04;80.00;99664.28;5004523;28;20046;-61
2022/04/09 04:05:03;;;;;;;14.18;8.68;;;;;;;4.11;79.56;99666.00;5004372;28;20050;-61
2022/04/09 04:07:34;;;;;;;12.43;9.40;;;;;;;4.13;79.35;99663.44;5003939;28;20233;-61
2022/04/09 04:10:10;;;;;;;13.95;8.93;;;;;;;4.15;79.34;99667.75;5003909;28;20109;-61
2022/04/09 04:12:42;;;;;;;18.58;10.57;;;;;;;4.22;79.60;99669.47;5003281;28;20213;-60
2022/04/09 04:15:15;;;;;;;13.52;8.60;;;;;;;4.23;79.06;99655.69;5004072;28;20073;-61
2022/04/09 04:17:47;;;;;;;11.18;8.45;;;;;;;4.28;79.26;99664.28;5003717;28;20058;-59
2022/04/09 04:20:19;;;;;;;15.30;8.52;;;;;;;4.33;79.38;99667.72;5004206;28;20096;-60
2022/04/09 04:22:51;;;;;;;12.90;7.97;;;;;;;4.39;79.33;99660.84;5004181;28;20461;-59
2022/04/09 04:25:24;;;;;;;17.58;9.88;;;;;;;4.45;79.10;99666.88;5002723;28;20233;-59
2022/04/09 04:27:54;;;;;;;16.75;9.55;;;;;;;4.44;78.89;99659.09;5002454;28;20049;-61
2022/04/09 04:30:25;;;;;;;12.05;9.43;;;;;;;4.54;78.64;99655.63;5003061;28;20093;-60
2022/04/09 04:32:56;;;;;;;15.48;9.35;;;;;;;4.69;78.95;99654.75;5003650;28;20473;-60
2022/04/09 04:35:26;;;;;;;24.38;11.10;;;;;;;4.84;78.45;99643.50;5003096;28;20049;-59
2022/04/09 04:37:57;;;;;;;21.65;10.48;;;;;;;4.90;78.19;99643.50;5007017;28;20367;-59
2022/04/09 04:40:30;;;;;;;13.88;9.68;;;;;;;4.93;78.11;99643.47;5007959;28;20109;-62
2022/04/09 04:43:00;;;;;;;16.33;10.55;;;;;;;4.94;77.83;99651.25;5008074;28;20046;-59
2022/04/09 04:45:31;;;;;;;16.98;9.70;;;;;;;4.94;77.82;99655.53;5007510;28;20041;-61
2022/04/09 04:48:02;;;;;;;21.13;11.15;;;;;;;4.84;77.28;99653.84;5007686;28;20049;-59
2022/04/09 04:50:33;;;;;;;19.00;9.88;;;;;;;4.79;77.60;99646.09;5007613;28;20049;-59
2022/04/09 04:53:04;;;;;;;17.60;11.02;;;;;;;4.74;77.73;99642.66;5007658;28;20062;-59
2022/04/09 04:55:36;;;;;;;17.25;11.30;;;;;;;4.70;77.92;99641.81;5007742;28;20157;-60
2022/04/09 04:58:07;;;;;;;20.48;11.07;;;;;;;4.71;78.13;99627.13;5006156;28;20081;-61
2022/04/09 05:00:38;;;;;;;17.15;10.85;;;;;;;4.75;77.90;99629.72;5007429;28;20049;-59
2022/04/09 05:03:10;;;;;;;16.50;11.23;;;;;;;4.71;78.21;99642.66;5008546;28;20523;-62
2022/04/09 05:05:41;;;;;;;22.08;14.02;;;;;;;4.72;78.39;99632.31;5007590;28;20049;-61
2022/04/09 05:08:13;;;;;;;17.27;11.45;;;;;;;4.76;78.43;99631.44;5007490;28;20251;-61
2022/04/09 05:10:45;;;;;;;18.60;11.18;;;;;;;4.81;78.25;99627.97;5007750;28;20322;-60
2022/04/09 05:13:17;;;;;;;16.95;11.65;;;;;;;4.80;78.29;99631.44;5007814;28;20050;-61
2022/04/09 05:15:48;;;;;;;21.38;12.65;;;;;;;4.74;78.43;99633.19;5007770;28;20121;-60
2022/04/09 05:18:19;;;;;;;18.80;12.93;;;;;;;4.76;78.60;99652.13;5007849;28;20297;-61
2022/04/09 05:20:51;;;;;;;20.55;14.40;;;;;;;4.67;78.35;99651.31;5007625;28;20116;-60
2022/04/09 05:23:23;;;;;;;23.08;15.00;;;;;;;4.60;78.43;99640.13;5007096;28;20042;-59
2022/04/09 05:25:56;;;;;;;18.70;13.80;;;;;;;4.63;79.00;99628.91;5007027;28;20060;-60
2022/04/09 05:28:28;;;;;;;21.40;15.70;;;;;;;4.63;79.00;99640.09;5007121;28;20125;-61
2022/04/09 05:30:59;;;;;;;25.55;17.55;;;;;;;4.61;78.94;99631.47;5007568;28;20057;-61
2022/04/09 05:33:30;;;;;;;26.35;18.08;;;;;;;4.62;79.24;99628.03;5007412;28;20077;-61
2022/04/09 05:36:02;;;;;;;25.70;18.17;;;;;;;4.57;78.91;99634.94;5007486;28;20056;-60
2022/04/09 05:38:34;;;;;;;24.70;17.15;;;;;;;4.59;79.19;99643.56;5007387;28;20677;-60
2022/04/09 05:41:06;;;;;;;32.90;20.40;;;;;;;4.54;79.00;99651.34;5006984;28;20058;-60
2022/04/09 05:43:37;;;;;;;24.67;17.58;;;;;;;4.49;79.33;99652.19;5006282;28;20176;-60
2022/04/09 05:46:08;;;;;;;25.67;16.25;;;;;;;4.43;79.38;99636.69;5006936;28;20335;-59
2022/04/09 05:48:39;;;;;;;21.50;14.40;;;;;;;4.41;79.63;99643.59;5005151;28;20078;-62
2022/04/09 05:51:10;;;;;;;25.58;17.10;;;;;;;4.11;79.88;99583.28;5006531;28;20369;-60
2022/04/09 05:53:41;;;;;;;23.92;15.90;;;;;;;4.33;79.84;99641.88;5006435;28;20061;-61
2022/04/09 05:56:14;;;;;;;25.13;14.73;;;;;;;4.31;80.05;99638.41;5005685;28;20058;-61
2022/04/09 05:58:45;;;;;;;25.58;14.18;;;;;;;4.41;80.22;99638.41;5006886;28;20390;-59
2022/04/09 06:01:36;;;;;;;24.30;14.07;;;;;;;4.49;80.52;99647.03;5005928;28;20073;-60
2022/04/09 06:04:08;;;;;;;21.67;13.85;;;;;;;4.44;80.23;99644.47;5004892;28;20112;-60
2022/04/09 06:06:40;;;;;;;23.55;14.30;;;;;;;4.41;80.51;99649.63;5005231;28;20133;-60
2022/04/09 06:09:11;;;;;;;28.38;15.20;;;;;;;4.33;80.17;99641.00;5005875;28;20123;-62
2022/04/09 06:11:47;;;;;;;27.05;16.58;;;;;;;4.20;80.17;99629.81;5001673;28;20280;-59
2022/04/09 06:14:18;;;;;;;27.95;16.13;;;;;;;4.26;80.67;99640.16;5005072;28;20340;-59
2022/04/09 06:16:50;;;;;;;31.08;15.50;;;;;;;4.24;80.79;99639.31;5005580;28;20113;-60
2022/04/09 06:19:21;;;;;;;22.23;14.68;;;;;;;4.26;80.51;99640.16;5005708;28;20061;-62
2022/04/09 06:21:52;;;;;;;27.58;15.00;;;;;;;4.25;80.82;99633.28;5005353;28;20046;-61
2022/04/09 06:24:24;;;;;;;27.08;16.27;;;;;;;4.27;80.99;99639.31;5004876;28;20287;-58
2022/04/09 06:26:57;;;;;;;33.58;17.48;;;;;;;4.29;80.59;99645.34;5004742;28;20042;-59
2022/04/09 06:29:28;;;;;;;28.08;16.60;;;;;;;4.23;80.56;99649.66;5004538;28;20083;-60
2022/04/09 06:31:59;;;;;;;27.00;16.92;;;;;;;4.20;80.87;99655.69;5004895;28;20061;-60
2022/04/09 06:34:30;;;;;;;30.20;16.60;;;;;;;4.14;80.71;99654.81;5003566;28;20083;-59
2022/04/09 06:37:01;;;;;;;32.30;16.80;;;;;;;4.09;80.90;99652.22;5004433;28;20061;-64
2022/04/09 06:39:38;;;;;;;28.45;16.40;;;;;;;4.14;81.07;99644.47;5004544;28;20081;-61
2022/04/09 06:42:11;;;;;;;32.22;18.05;;;;;;;4.16;81.08;99648.78;5004554;28;20060;-59
2022/04/09 06:44:42;;;;;;;32.67;19.30;;;;;;;4.18;81.11;99644.47;5004464;28;20056;-61
2022/04/09 06:47:13;;;;;;;42.55;20.90;;;;;;;4.16;81.37;99647.91;5004161;28;20104;-61
2022/04/09 06:49:44;;;;;;;50.17;22.70;;;;;;;4.12;81.37;99647.06;5004522;28;20050;-59
2022/04/09 06:52:16;;;;;;;50.00;23.58;;;;;;;4.08;81.43;99642.75;5004691;28;20077;-60
2022/04/09 06:54:47;;;;;;;52.95;20.27;;;;;;;3.98;81.49;99643.63;5004714;28;20327;-59
2022/04/09 06:57:20;;;;;;;40.72;19.58;;;;;;;3.89;82.05;99649.63;5007854;28;20056;-59
2022/04/09 06:59:51;;;;;;;48.28;21.45;;;;;;;3.85;82.42;99648.78;5023550;28;20041;-59
2022/04/09 07:02:22;;;;;;;33.50;18.63;;;;;;;3.85;82.83;99653.09;5023954;28;20053;-61
2022/04/09 07:04:54;;;;;;;37.03;19.88;;;;;;;3.83;82.91;99660.81;5023716;28;20041;-60
2022/04/09 07:07:26;;;;;;;47.42;21.90;;;;;;;3.86;82.79;99666.00;5023968;28;20077;-59
2022/04/09 07:10:06;;;;;;;57.33;21.25;;;;;;;3.81;82.85;99665.13;5023920;28;20332;-61
2022/04/09 07:12:39;;;;;;;51.85;22.05;;;;;;;3.54;82.93;99626.34;5024393;28;20066;-61
2022/04/09 07:15:11;;;;;;;40.28;20.45;;;;;;;3.70;83.29;99669.44;5023043;28;20221;-61
2022/04/09 07:17:44;;;;;;;67.75;21.67;;;;;;;3.66;83.39;99681.47;5023419;28;20072;-59
2022/04/09 07:20:15;;;;;;;59.28;21.10;;;;;;;3.54;83.93;99696.06;5023003;28;20045;-62
2022/04/09 07:22:46;;;;;;;63.80;25.15;;;;;;;3.42;84.49;99690.03;5024654;28;20107;-59
2022/04/09 07:25:18;;;;;;;52.30;24.92;;;;;;;3.40;84.76;99683.13;5024559;28;20391;-59
2022/04/09 07:27:51;;;;;;;52.65;24.45;;;;;;;3.39;85.09;99695.16;5024621;28;20073;-59
2022/04/09 07:30:24;;;;;;;222.23;29.90;;;;;;;3.27;85.34;99692.56;5022280;28;20042;-62
2022/04/09 07:32:57;;;;;;;46.63;8.75;;;;;;;2.56;82.44;99697.31;5024408;28;20049;-60
2022/04/09 07:35:28;;;;;;;22.65;8.50;;;;;;;1.36;83.92;99606.97;5023607;28;20129;-62
2022/04/09 07:38:00;;;;;;;35.35;8.75;;;;;;;1.55;85.07;99706.72;5024237;28;20940;-61
2022/04/09 07:40:30;;;;;;;32.22;7.78;;;;;;;1.33;86.19;99717.63;5024572;28;20371;-61
2022/04/09 07:43:03;;;;;;;54.25;9.05;;;;;;;1.22;86.63;99720.03;5023907;28;20079;-61
2022/04/09 07:45:34;;;;;;;36.28;9.73;;;;;;;1.13;86.35;99728.53;5024139;28;20125;-61
2022/04/09 07:48:05;;;;;;;35.60;11.32;;;;;;;0.91;87.13;99713.66;5023880;28;20112;-61
2022/04/09 07:50:36;;;;;;;61.17;15.48;;;;;;;0.98;87.64;99741.19;5023980;28;20061;-62
2022/04/09 07:53:08;;;;;;;67.53;20.83;;;;;;;0.84;88.26;99739.25;5023907;28;20364;-60
2022/04/09 07:55:38;;;;;;;78.90;27.27;;;;;;;0.77;88.31;99737.44;5023935;28;20054;-60
2022/04/09 07:58:14;;;;;;;83.45;29.98;;;;;;;0.69;88.46;99739.03;5023508;28;20060;-60
2022/04/09 08:00:45;;;;;;;86.90;26.10;;;;;;;0.61;88.26;99740.66;5023672;28;20119;-61
2022/04/09 08:03:16;;;;;;;78.20;26.30;;;;;;;0.56;88.71;99742.28;5022957;28;20061;-61
2022/04/09 08:05:47;;;;;;;116.65;33.70;;;;;;;0.50;88.86;99748.19;5023765;28;20226;-60
2022/04/09 08:08:18;;;;;;;65.82;22.25;;;;;;;0.45;89.39;99748.94;5024069;28;20107;-60
2022/04/09 08:10:48;;;;;;;50.53;17.60;;;;;;;0.35;89.20;99753.94;5023260;28;20307;-61
2022/04/09 08:13:21;;;;;;;25.25;12.70;;;;;;;0.33;89.29;99765.91;5024052;28;20080;-60
2022/04/09 08:15:52;;;;;;;28.25;15.00;;;;;;;0.31;89.72;99766.72;5022844;28;20095;-60
2022/04/09 08:18:22;;;;;;;26.90;13.45;;;;;;;0.30;89.79;99755.59;5023259;28;20091;-62
2022/04/09 08:21:09;;;;;;;26.20;13.77;;;;;;;0.28;89.61;99766.69;5023543;28;20053;-61
2022/04/09 08:23:40;;;;;;;19.98;10.88;;;;;;;0.38;89.94;99768.56;5023625;28;20050;-61
2022/04/09 08:26:10;;;;;;;23.60;11.52;;;;;;;0.34;89.48;99747.06;5023244;28;20107;-62
2022/04/09 08:28:43;;;;;;;18.08;10.60;;;;;;;0.37;89.50;99761.66;5023776;28;20191;-61
2022/04/09 08:31:13;;;;;;;15.68;8.18;;;;;;;0.33;89.47;99760.75;5023959;28;20120;-60
2022/04/09 08:33:44;;;;;;;14.48;8.68;;;;;;;0.22;89.65;99764.84;5023629;28;20046;-61
2022/04/09 08:36:15;;;;;;;15.07;9.68;;;;;;;0.26;89.81;99769.22;5023010;28;20120;-62
2022/04/09 08:38:46;;;;;;;21.50;10.18;;;;;;;0.22;89.52;99772.56;5023781;28;20058;-62
2022/04/09 08:41:17;;;;;;;24.55;11.02;;;;;;;0.04;89.54;99741.41;5023384;28;20121;-60
2022/04/09 08:43:49;;;;;;;31.00;14.63;;;;;;;0.22;89.64;99780.25;5023159;28;20153;-60
2022/04/09 08:46:20;;;;;;;33.85;14.55;;;;;;;0.23;89.45;99787.16;5023167;28;20046;-59
2022/04/09 08:48:52;;;;;;;24.27;10.93;;;;;;;0.25;89.73;99790.63;5023215;28;20067;-61
2022/04/09 08:51:23;;;;;;;17.80;10.85;;;;;;;0.21;89.39;99787.09;5022975;28;20108;-60
2022/04/09 08:54:02;;;;;;;18.42;10.38;;;;;;;0.20;89.33;99787.06;5023234;28;20053;-60
2022/04/09 08:56:38;;;;;;;18.70;10.73;;;;;;;0.12;89.41;99786.06;5023133;28;20251;-60
2022/04/09 08:59:11;;;;;;;19.55;8.82;;;;;;;-0.17;89.44;99731.63;5023116;28;20077;-59
2022/04/09 09:01:42;;;;;;;15.60;8.57;;;;;;;0.07;89.72;99762.88;5023083;28;20061;-60
2022/04/09 09:04:13;;;;;;;15.73;7.22;;;;;;;0.10;89.82;99772.34;5023328;28;20054;-61
2022/04/09 09:06:45;;;;;;;13.85;7.05;;;;;;;0.10;89.68;99787.75;5022187;28;20072;-59
2022/04/09 09:09:29;;;;;;;16.50;7.90;;;;;;;-0.08;90.00;99755.75;5021079;28;20117;-60
2022/04/09 09:12:02;;;;;;;13.15;8.02;;;;;;;0.17;89.92;99799.88;5022612;28;20053;-61
2022/04/09 09:14:36;;;;;;;16.55;8.30;;;;;;;0.10;90.05;99785.19;5022065;28;20084;-59
2022/04/09 09:17:06;;;;;;;22.05;9.50;;;;;;;0.06;89.58;99791.13;5022391;28;20435;-58
2022/04/09 09:19:45;;;;;;;54.83;11.68;;;;;;;0.08;89.80;99803.16;5022148;28;20057;-60
2022/04/09 09:22:16;;;;;;;150.63;14.48;;;;;;;0.04;90.11;99797.94;5023471;28;20344;-58
2022/04/09 09:25:04;;;;;;;113.25;13.48;;;;;;;-0.07;89.97;99785.75;5025912;28;20075;-61
2022/04/09 09:27:36;;;;;;;183.00;15.73;;;;;;;-0.09;90.30;99796.84;5026844;28;20062;-58
2022/04/09 09:30:11;;;;;;;137.63;14.15;;;;;;;-0.14;90.38;99799.31;5026739;28;20107;-58
2022/04/09 09:32:42;;;;;;;62.80;12.55;;;;;;;-0.19;90.19;99805.19;5026597;28;20088;-58
2022/04/09 09:35:13;;;;;;;124.63;13.95;;;;;;;-0.22;90.76;99800.88;5025458;28;20338;-59
2022/04/09 09:37:44;;;;;;;151.48;12.77;;;;;;;-0.27;90.70;99811.03;5026396;28;20053;-59
2022/04/09 09:40:33;;;;;;;67.88;12.15;;;;;;;-0.53;91.02;99779.69;5026269;28;20096;-59
2022/04/09 09:43:15;;;;;;;124.35;14.10;;;;;;;-0.36;91.04;99817.69;5026371;28;20053;-61
2022/04/09 09:45:48;;;;;;;116.07;13.93;;;;;;;-0.46;91.13;99827.75;5026230;28;20364;-61
2022/04/09 09:48:24;;;;;;;110.53;13.32;;;;;;;-0.31;91.27;99839.19;5026352;28;20083;-61
2022/04/09 09:50:56;;;;;;;158.85;15.82;;;;;;;-0.29;91.43;99845.22;5026115;28;20480;-60
2022/04/09 09:53:31;;;;;;;228.82;14.82;;;;;;;-0.37;91.08;99851.91;5025059;28;20041;-59
2022/04/09 09:56:03;;;;;;;145.30;12.00;;;;;;;-0.43;91.28;99858.63;5025336;28;20100;-59
2022/04/09 09:58:34;;;;;;;171.68;13.15;;;;;;;-0.48;91.37;99870.47;5024761;28;20124;-59
2022/04/09 10:01:19;;;;;;;177.20;12.50;;;;;;;-0.51;91.49;99875.56;5025511;28;20389;-59
2022/04/09 10:03:51;;;;;;;115.25;12.80;;;;;;;-0.50;91.69;99887.56;5025497;28;20057;-58
2022/04/09 10:06:23;;;;;;;113.57;12.80;;;;;;;-0.52;91.75;99884.09;5025097;28;20131;-59
2022/04/09 10:08:54;;;;;;;98.82;13.43;;;;;;;-0.51;91.62;99885.81;5024772;28;20274;-62
2022/04/09 10:11:25;;;;;;;71.43;11.35;;;;;;;-0.47;91.98;99887.63;5024967;28;20046;-60
2022/04/09 10:13:58;;;;;;;76.07;12.73;;;;;;;-0.39;92.07;99892.06;5024521;28;20122;-59
2022/04/09 10:16:34;;;;;;;111.13;12.75;;;;;;;-0.40;91.99;99892.88;5024524;28;20053;-60
2022/04/09 10:19:06;;;;;;;66.40;13.88;;;;;;;-0.93;91.64;99809.63;5024549;28;20057;-60
2022/04/09 10:21:41;;;;;;;35.47;10.55;;;;;;;-0.41;91.86;99907.44;5024601;28;20045;-60
2022/04/09 10:24:16;;;;;;;51.92;12.50;;;;;;;-0.47;92.12;99903.03;5024270;28;20057;-59
2022/04/09 10:26:47;;;;;;;89.68;13.45;;;;;;;-0.43;91.92;99924.50;5024452;28;20049;-60
2022/04/09 10:29:20;;;;;;;94.72;13.68;;;;;;;-0.43;92.01;99930.50;5024859;28;20113;-61
2022/04/09 10:31:53;;;;;;;56.08;12.23;;;;;;;-0.46;92.02;99922.72;5024690;28;20109;-59
2022/04/09 10:34:24;;;;;;;83.55;14.63;;;;;;;-0.54;92.30;99931.97;5023851;28;20396;-62
2022/04/09 10:37:04;;;;;;;110.38;17.60;;;;;;;-0.57;92.57;99931.03;5024529;28;20121;-62
2022/04/09 10:39:45;;;;;;;;;;;;;;;-0.52;92.45;99939.72;5025044;28;20057;-60
2022/04/09 10:42:48;;;;;;;96.47;10.43;;;;;;;-0.55;92.84;99947.31;5024271;28;19967;-63
2022/04/09 10:45:19;;;;;;;49.38;11.80;;;;;;;-0.56;92.41;99954.16;5025532;28;20052;-59
2022/04/09 10:48:12;;;;;;;123.88;11.57;;;;;;;-0.64;92.46;99945.41;5024007;28;20183;-60
2022/04/09 10:50:56;;;;;;;25.65;11.10;;;;;;;-0.73;92.79;99946.03;5024481;28;20126;-59
2022/04/09 10:53:28;;;;;;;120.55;13.43;;;;;;;-0.53;92.75;99979.00;5024166;28;20052;-60
2022/04/09 10:56:20;;;;;;;104.88;12.82;;;;;;;-0.48;92.93;99992.81;5023601;28;20053;-59
2022/04/09 10:59:08;;;;;;;96.20;12.95;;;;;;;-0.63;92.95;99971.94;5025027;28;20104;-59
2022/04/09 11:01:59;;;;;;;49.00;10.27;;;;;;;-0.47;92.75;99995.44;5024942;28;20049;-60
2022/04/09 11:04:47;;;;;;;52.25;10.82;;;;;;;-0.51;92.81;99998.75;5020760;28;20077;-59
2022/04/09 11:07:20;;;;;;;66.45;10.23;;;;;;;-0.44;92.82;100016.03;5024082;28;20279;-60
2022/04/09 11:09:56;;;;;;;48.95;10.48;;;;;;;-0.47;92.89;100010.84;5024380;28;20260;-60
2022/04/09 11:12:28;;;;;;;60.28;10.63;;;;;;;-0.52;92.54;100012.44;5024534;28;20290;-59
2022/04/09 11:15:00;;;;;;;105.18;11.02;;;;;;;-0.49;92.48;100027.03;5024295;28;20066;-59
2022/04/09 11:17:32;;;;;;;68.13;10.52;;;;;;;-0.52;92.68;100032.97;5024320;28;20054;-59
2022/04/09 11:20:07;;;;;;;48.88;9.52;;;;;;;-0.59;92.73;100020.81;5023951;28;20057;-60
2022/04/09 11:22:39;;;;;;;45.40;10.88;;;;;;;-0.47;92.93;100030.50;5024324;28;20084;-58
2022/04/09 11:25:18;;;;;;;59.85;10.23;;;;;;;-0.77;92.56;99989.56;5024364;28;20347;-58
2022/04/09 11:27:49;;;;;;;50.58;9.35;;;;;;;-0.51;92.78;100034.69;5024243;28;20054;-59
2022/04/09 11:30:20;;;;;;;33.22;10.02;;;;;;;-0.52;92.90;100038.09;5022642;28;20273;-58
2022/04/09 11:32:51;;;;;;;22.17;9.23;;;;;;;-0.50;92.91;100043.25;5024534;28;20124;-61
2022/04/09 11:35:24;;;;;;;13.93;6.93;;;;;;;-0.50;93.01;100039.00;5024191;28;20062;-60
2022/04/09 11:37:55;;;;;;;17.20;9.52;;;;;;;-0.50;93.11;100033.88;5022239;28;20046;-59
2022/04/09 11:40:25;;;;;;;16.33;8.70;;;;;;;-0.46;92.98;100045.94;5024189;28;20200;-60
2022/04/09 11:42:59;;;;;;;18.73;8.13;;;;;;;-0.41;92.90;100051.19;5024215;28;20046;-58
2022/04/09 11:45:31;;;;;;;12.55;7.43;;;;;;;-0.36;92.97;100059.00;5023817;28;20049;-60
2022/04/09 11:48:03;;;;;;;11.40;7.18;;;;;;;-0.38;93.12;100050.38;5024275;28;20148;-59
2022/04/09 11:50:39;;;;;;;11.00;6.93;;;;;;;-0.39;92.77;100041.81;5023942;28;20096;-58
2022/04/09 11:53:13;;;;;;;10.85;6.60;;;;;;;-0.32;92.97;100055.69;5024099;28;20061;-59